createdAt,value
2023-01-27T00:01:36.080Z,96834.78
2023-01-27T00:03:41.202Z,96839.19
2023-01-27T00:05:49.154Z,96832.72
2023-01-27T00:07:54.019Z,96834.41
2023-01-27T00:09:58.833Z,96836.53
2023-01-27T00:12:16.059Z,96846.75
2023-01-27T00:14:20.813Z,96831.53
2023-01-27T00:16:25.679Z,96833.94
2023-01-27T00:18:30.761Z,96835.28
2023-01-27T00:20:48.426Z,96834.03
2023-01-27T00:23:08.269Z,96841.88
2023-01-27T00:25:13.243Z,96833.81
2023-01-27T00:27:18.044Z,96835.41
2023-01-27T00:29:23.043Z,96832.53
2023-01-27T00:31:40.471Z,96830.72
2023-01-27T00:33:46.030Z,96831.50
2023-01-27T00:35:50.855Z,96829.69
2023-01-27T00:37:58.324Z,96835.47
2023-01-27T00:40:03.184Z,96828.66
2023-01-27T00:42:10.834Z,96824.13
2023-01-27T00:44:15.752Z,96829.94
2023-01-27T00:46:19.218Z,96840.63
2023-01-27T00:48:24.055Z,96832.44
2023-01-27T00:50:28.960Z,96829.81
2023-01-27T00:52:34.221Z,96834.59
2023-01-27T00:54:42.536Z,96833.03
2023-01-27T00:56:47.804Z,96826.75
2023-01-27T00:58:52.648Z,96835.16
2023-01-27T01:00:59.525Z,96839.34
2023-01-27T01:03:04.464Z,96834.09
2023-01-27T01:05:09.867Z,96836.50
2023-01-27T01:07:14.764Z,96835.22
2023-01-27T01:09:19.607Z,96840.69
2023-01-27T01:11:29.083Z,96842.53
2023-01-27T01:13:34.514Z,96840.47
2023-01-27T01:15:39.834Z,96839.69
2023-01-27T01:17:44.664Z,96844.34
2023-01-27T01:19:49.571Z,96845.38
2023-01-27T01:21:54.515Z,96851.41
2023-01-27T01:23:59.422Z,96851.41
2023-01-27T01:26:04.318Z,96857.19
2023-01-27T01:28:12.253Z,96869.22
2023-01-27T01:30:17.373Z,96865.59
2023-01-27T01:32:22.244Z,96854.13
2023-01-27T01:34:27.245Z,96856.72
2023-01-27T01:36:32.125Z,96846.03
2023-01-27T01:38:36.984Z,96849.44
2023-01-27T01:40:45.322Z,96838.19
2023-01-27T01:43:00.271Z,96844.22
2023-01-27T01:45:44.305Z,96840.81
2023-01-27T01:47:49.229Z,96840.22
2023-01-27T01:49:54.035Z,96843.66
2023-01-27T01:52:02.900Z,96837.38
2023-01-27T01:54:11.129Z,96838.19
2023-01-27T01:56:23.895Z,96841.59
2023-01-27T01:58:30.454Z,96842.38
2023-01-27T02:00:38.749Z,96841.59
2023-01-27T02:02:44.569Z,96840.88
2023-01-27T02:04:54.993Z,96837.72
2023-01-27T02:07:05.419Z,96834.88
2023-01-27T02:09:10.921Z,96838.25
2023-01-27T02:11:15.861Z,96829.63
2023-01-27T02:13:20.739Z,96823.84
2023-01-27T02:15:25.615Z,96823.03
2023-01-27T02:17:34.042Z,96828.28
2023-01-27T02:19:48.542Z,96833.50
2023-01-27T02:21:55.694Z,96838.50
2023-01-27T02:24:06.604Z,96836.13
2023-01-27T02:26:18.630Z,96832.50
2023-01-27T02:28:23.659Z,96830.91
2023-01-27T02:30:28.821Z,96821.69
2023-01-27T02:32:34.871Z,96834.09
2023-01-27T02:34:40.995Z,96826.44
2023-01-27T02:36:50.626Z,96829.06
2023-01-27T02:38:59.628Z,96830.91
2023-01-27T02:41:10.954Z,96829.06
2023-01-27T02:43:19.468Z,96822.25
2023-01-27T02:45:24.831Z,96819.66
2023-01-27T02:47:30.600Z,96819.66
2023-01-27T02:49:35.652Z,96827.72
2023-01-27T02:51:42.164Z,96831.69
2023-01-27T02:53:47.260Z,96824.06
2023-01-27T02:55:52.117Z,96818.84
2023-01-27T02:57:57.065Z,96826.69
2023-01-27T03:00:31.580Z,96821.94
2023-01-27T03:02:36.491Z,96815.13
2023-01-27T03:04:42.175Z,96815.91
2023-01-27T03:06:47.077Z,96814.56
2023-01-27T03:08:52.017Z,96818.28
2023-01-27T03:10:58.501Z,96821.69
2023-01-27T03:13:03.484Z,96821.69
2023-01-27T03:15:22.361Z,96812.50
2023-01-27T03:17:42.650Z,96814.78
2023-01-27T03:19:53.416Z,96818.41
2023-01-27T03:22:02.012Z,96814.78
2023-01-27T03:24:09.590Z,96819.25
2023-01-27T03:26:15.036Z,96821.03
2023-01-27T03:28:23.153Z,96818.41
2023-01-27T03:30:41.925Z,96816.63
2023-01-27T03:32:59.462Z,96814.00
2023-01-27T03:35:23.327Z,96820.81
2023-01-27T03:37:41.258Z,96821.63
2023-01-27T03:39:58.500Z,96823.22
2023-01-27T03:42:15.782Z,96820.03
2023-01-27T03:44:33.388Z,96816.84
2023-01-27T03:46:38.336Z,96814.47
2023-01-27T03:48:45.796Z,96821.50
2023-01-27T03:50:53.242Z,96817.09
2023-01-27T03:53:05.867Z,96815.50
2023-01-27T03:55:12.368Z,96813.34
2023-01-27T03:57:17.996Z,96816.75
2023-01-27T03:59:23.110Z,96819.38
2023-01-27T04:01:28.080Z,96814.13
2023-01-27T04:03:47.750Z,96819.38
2023-01-27T04:06:07.707Z,96813.59
2023-01-27T04:08:12.640Z,96817.00
2023-01-27T04:10:17.570Z,96819.06
2023-01-27T04:12:20.350Z,96816.69
2023-01-27T04:14:27.267Z,96816.69
2023-01-27T04:16:32.318Z,96808.84
2023-01-27T04:18:38.127Z,96816.22
2023-01-27T04:20:43.034Z,96820.63
2023-01-27T04:22:50.749Z,96806.53
2023-01-27T04:24:55.576Z,96815.72
2023-01-27T04:27:03.208Z,96812.88
2023-01-27T04:29:08.153Z,96812.34
2023-01-27T04:31:13.106Z,96813.91
2023-01-27T04:33:18.979Z,96820.97
2023-01-27T04:35:27.852Z,96817.22
2023-01-27T04:37:38.968Z,96811.91
2023-01-27T04:39:47.459Z,96818.94
2023-01-27T04:41:52.637Z,96822.38
2023-01-27T04:43:57.413Z,96822.81
2023-01-27T04:46:02.310Z,96822.56
2023-01-27T04:48:07.850Z,96821.56
2023-01-27T04:50:14.477Z,96822.81
2023-01-27T04:52:19.272Z,96822.81
2023-01-27T04:54:26.605Z,96816.25
2023-01-27T04:56:36.042Z,96828.63
2023-01-27T04:58:42.507Z,96815.56
2023-01-27T05:00:48.021Z,96812.94
2023-01-27T05:02:53.030Z,96816.56
2023-01-27T05:04:58.187Z,96824.75
2023-01-27T05:07:03.179Z,96826.56
2023-01-27T05:09:07.945Z,96825.06
2023-01-27T05:11:13.092Z,96821.66
2023-01-27T05:13:20.508Z,96816.34
2023-01-27T05:15:25.337Z,96829.81
2023-01-27T05:17:34.157Z,96830.84
2023-01-27T05:19:39.026Z,96824.59
2023-01-27T05:21:44.574Z,96833.69
2023-01-27T05:23:49.484Z,96822.38
2023-01-27T05:25:54.359Z,96833.03
2023-01-27T05:27:59.288Z,96838.25
2023-01-27T05:30:07.761Z,96836.94
2023-01-27T05:32:12.606Z,96842.16
2023-01-27T05:34:17.392Z,96844.31
2023-01-27T05:36:24.316Z,96849.06
2023-01-27T05:38:29.137Z,96846.22
2023-01-27T05:40:33.967Z,96855.66
2023-01-27T05:42:38.770Z,96855.06
2023-01-27T05:44:43.660Z,96858.28
2023-01-27T05:46:51.045Z,96869.28
2023-01-27T05:48:58.335Z,96861.66
2023-01-27T05:51:03.215Z,96862.69
2023-01-27T05:53:08.312Z,96867.13
2023-01-27T05:55:13.404Z,96873.94
2023-01-27T05:57:18.396Z,96879.41
2023-01-27T05:59:23.241Z,96879.41
2023-01-27T06:01:30.197Z,96879.06
2023-01-27T06:03:38.148Z,96874.41
2023-01-27T06:05:51.670Z,96878.38
2023-01-27T06:07:57.699Z,96877.03
2023-01-27T06:10:02.551Z,96877.81
2023-01-27T06:12:07.667Z,96879.66
2023-01-27T06:14:12.579Z,96878.59
2023-01-27T06:16:20.171Z,96878.59
2023-01-27T06:18:26.298Z,96880.97
2023-01-27T06:20:33.709Z,96888.03
2023-01-27T06:22:38.604Z,96885.44
2023-01-27T06:24:43.363Z,96885.44
2023-01-27T06:26:48.277Z,96890.41
2023-01-27T06:28:53.068Z,96883.81
2023-01-27T06:30:58.002Z,96891.66
2023-01-27T06:33:02.783Z,96895.34
2023-01-27T06:35:08.847Z,96892.13
2023-01-27T06:37:16.278Z,96890.34
2023-01-27T06:39:21.279Z,96901.56
2023-01-27T06:41:26.117Z,96903.97
2023-01-27T06:43:31.289Z,96902.13
2023-01-27T06:45:36.086Z,96900.09
2023-01-27T06:47:41.974Z,96894.88
2023-01-27T06:49:46.744Z,96897.25
2023-01-27T06:51:51.942Z,96899.63
2023-01-27T06:53:59.591Z,96898.81
2023-01-27T06:56:04.824Z,96900.41
2023-01-27T06:58:10.419Z,96897.78
2023-01-27T07:00:16.938Z,96898.81
2023-01-27T07:02:22.064Z,96897.56
2023-01-27T07:04:26.929Z,96897.00
2023-01-27T07:06:31.801Z,96899.94
2023-01-27T07:08:37.033Z,96895.53
2023-01-27T07:10:46.908Z,96893.47
2023-01-27T07:12:51.746Z,96895.28
2023-01-27T07:14:57.029Z,96896.06
2023-01-27T07:17:01.909Z,96896.63
2023-01-27T07:19:06.827Z,96902.91
2023-01-27T07:21:12.785Z,96901.06
2023-01-27T07:23:17.595Z,96896.63
2023-01-27T07:25:22.411Z,96894.25
2023-01-27T07:27:30.203Z,96891.63
2023-01-27T07:29:35.028Z,96891.63
2023-01-27T07:31:39.949Z,96900.28
2023-01-27T07:33:44.976Z,96900.06
2023-01-27T07:35:53.727Z,96893.00
2023-01-27T07:37:59.864Z,96888.00
2023-01-27T07:40:04.847Z,96893.81
2023-01-27T07:42:11.243Z,96894.81
2023-01-27T07:44:18.875Z,96885.97
2023-01-27T07:46:24.046Z,96889.38
2023-01-27T07:48:29.729Z,96895.38
2023-01-27T07:50:34.809Z,96898.00
2023-01-27T07:52:39.802Z,96902.44
2023-01-27T07:54:44.839Z,96904.03
2023-01-27T07:56:49.717Z,96916.88
2023-01-27T07:58:57.666Z,96915.28
2023-01-27T08:01:08.537Z,96914.50
2023-01-27T08:03:25.709Z,96920.75
2023-01-27T08:05:31.389Z,96919.25
2023-01-27T08:07:37.332Z,96927.88
2023-01-27T08:09:42.374Z,96920.03
2023-01-27T08:11:47.919Z,96920.81
2023-01-27T08:13:52.844Z,96916.41
2023-01-27T08:16:00.812Z,96919.03
2023-01-27T08:18:08.230Z,96915.34
2023-01-27T08:20:15.125Z,96915.34
2023-01-27T08:22:23.805Z,96924.56
2023-01-27T08:24:29.204Z,96922.41
2023-01-27T08:26:34.127Z,96935.59
2023-01-27T08:28:40.345Z,96926.41
2023-01-27T08:30:45.157Z,96933.53
2023-01-27T08:32:50.328Z,96923.31
2023-01-27T08:34:58.407Z,96927.41
2023-01-27T08:37:06.737Z,96929.56
2023-01-27T08:39:12.462Z,96929.31
2023-01-27T08:41:20.224Z,96937.16
2023-01-27T08:43:24.998Z,96946.63
2023-01-27T08:45:30.131Z,96944.78
2023-01-27T08:47:35.085Z,96944.00
2023-01-27T08:49:40.540Z,96952.63
2023-01-27T08:51:48.573Z,96953.44
2023-01-27T08:53:54.035Z,96951.84
2023-01-27T08:56:01.514Z,96956.06
2023-01-27T08:58:08.244Z,96950.81
2023-01-27T09:00:15.968Z,96953.22
2023-01-27T09:02:22.533Z,96955.81
2023-01-27T09:04:29.773Z,96954.81
2023-01-27T09:06:34.787Z,96959.00
2023-01-27T09:08:42.785Z,96956.13
2023-01-27T09:10:47.988Z,96953.53
2023-01-27T09:12:53.303Z,96959.00
2023-01-27T09:14:58.399Z,96962.41
2023-01-27T09:17:03.631Z,96959.47
2023-01-27T09:19:10.515Z,96956.28
2023-01-27T09:21:15.414Z,96958.69
2023-01-27T09:23:20.564Z,96968.09
2023-01-27T09:25:27.973Z,96960.81
2023-01-27T09:27:39.251Z,96954.69
2023-01-27T09:29:44.884Z,96960.03
2023-01-27T09:31:49.809Z,96959.00
2023-01-27T09:33:54.623Z,96964.34
2023-01-27T09:36:05.382Z,96956.72
2023-01-27T09:38:11.836Z,96971.38
2023-01-27T09:40:27.731Z,96977.41
2023-01-27T09:43:19.541Z,96971.13
2023-01-27T09:45:49.931Z,96969.09
2023-01-27T09:48:15.363Z,96962.38
2023-01-27T09:50:40.842Z,96956.91
2023-01-27T09:53:14.302Z,96966.91
2023-01-27T09:55:24.914Z,96976.34
2023-01-27T09:57:44.174Z,96976.34
2023-01-27T10:00:06.752Z,96969.28
2023-01-27T10:02:24.648Z,96961.19
2023-01-27T10:04:56.377Z,96960.41
2023-01-27T10:07:24.366Z,96976.34
2023-01-27T10:09:49.668Z,96979.53
2023-01-27T10:12:02.690Z,96973.03
2023-01-27T10:14:21.806Z,96971.19
2023-01-27T10:16:40.821Z,96975.41
2023-01-27T10:19:11.919Z,96973.03
2023-01-27T10:21:24.330Z,96982.00
2023-01-27T10:23:41.554Z,96991.78
2023-01-27T10:25:57.802Z,96984.16
2023-01-27T10:28:08.842Z,96983.56
2023-01-27T10:30:17.787Z,96985.41
2023-01-27T10:32:29.924Z,96985.41
2023-01-27T10:34:38.958Z,96982.00
2023-01-27T10:36:53.552Z,96983.56
2023-01-27T10:39:15.553Z,96976.53
2023-01-27T10:41:31.904Z,96977.09
2023-01-27T10:43:49.217Z,96974.78
2023-01-27T10:46:01.536Z,96980.38
2023-01-27T10:48:25.423Z,96987.97
2023-01-27T10:50:33.784Z,96991.38
2023-01-27T10:52:42.539Z,96985.91
2023-01-27T10:54:54.825Z,96969.97
2023-01-27T10:57:05.384Z,96975.78
2023-01-27T10:59:19.698Z,96980.00
2023-01-27T11:01:32.418Z,96980.53
2023-01-27T11:03:45.166Z,96981.56
2023-01-27T11:05:54.456Z,96983.94
2023-01-27T11:08:02.921Z,96993.41
2023-01-27T11:10:25.941Z,96993.16
2023-01-27T11:12:34.467Z,96989.75
2023-01-27T11:14:47.658Z,96987.84
2023-01-27T11:16:54.863Z,96994.34
2023-01-27T11:19:08.341Z,96982.50
2023-01-27T11:21:18.362Z,96982.75
2023-01-27T11:23:26.768Z,96977.28
2023-01-27T11:25:37.640Z,96971.25
2023-01-27T11:27:58.548Z,96975.44
2023-01-27T11:30:12.808Z,96975.78
2023-01-27T11:32:32.735Z,96974.19
2023-01-27T11:34:46.257Z,96966.03
2023-01-27T11:36:51.588Z,96966.56
2023-01-27T11:38:58.185Z,96963.16
2023-01-27T11:41:03.258Z,96964.72
2023-01-27T11:43:08.522Z,96962.69
2023-01-27T11:45:18.478Z,96964.28
2023-01-27T11:47:27.955Z,96964.53
2023-01-27T11:49:34.817Z,96963.00
2023-01-27T11:51:43.230Z,96956.97
2023-01-27T11:53:51.661Z,96958.56
2023-01-27T11:56:01.732Z,96956.44
2023-01-27T11:58:16.861Z,96955.16
2023-01-27T12:00:26.950Z,96957.78
2023-01-27T12:02:38.757Z,96954.13
2023-01-27T12:04:52.035Z,96949.69
2023-01-27T12:07:02.587Z,96946.75
2023-01-27T12:09:07.387Z,96952.06
2023-01-27T12:11:26.766Z,96954.00
2023-01-27T12:13:31.565Z,96951.38
2023-01-27T12:15:36.617Z,96943.59
2023-01-27T12:17:43.566Z,96946.53
2023-01-27T12:19:49.608Z,96946.06
2023-01-27T12:21:59.374Z,96945.84
2023-01-27T12:24:10.609Z,96946.63
2023-01-27T12:26:15.616Z,96942.97
2023-01-27T12:28:27.628Z,96947.63
2023-01-27T12:30:34.903Z,96950.81
2023-01-27T12:32:44.213Z,96937.97
2023-01-27T12:34:52.438Z,96950.59
2023-01-27T12:36:58.537Z,96946.94
2023-01-27T12:39:07.816Z,96940.34
2023-01-27T12:41:16.435Z,96938.28
2023-01-27T12:43:22.825Z,96935.41
2023-01-27T12:45:31.083Z,96930.75
2023-01-27T12:47:35.949Z,96935.75
2023-01-27T12:49:44.750Z,96935.75
2023-01-27T12:51:54.648Z,96936.78
2023-01-27T12:54:23.146Z,96933.38
2023-01-27T12:56:28.677Z,96927.56
2023-01-27T12:58:40.894Z,96925.19
2023-01-27T13:00:49.070Z,96931.72
2023-01-27T13:02:55.033Z,96929.09
2023-01-27T13:05:03.196Z,96931.13
2023-01-27T13:07:10.498Z,96929.31
2023-01-27T13:09:29.466Z,96926.16
2023-01-27T13:11:40.182Z,96919.88
2023-01-27T13:13:52.748Z,96926.16
2023-01-27T13:16:04.543Z,96924.78
2023-01-27T13:18:16.567Z,96922.41
2023-01-27T13:20:25.403Z,96922.16
2023-01-27T13:22:31.446Z,96922.50
2023-01-27T13:24:44.203Z,96920.13
2023-01-27T13:26:50.005Z,96917.50
2023-01-27T13:28:58.399Z,96920.38
2023-01-27T13:31:12.476Z,96918.28
2023-01-27T13:33:33.334Z,96917.25
2023-01-27T13:35:41.862Z,96921.25
2023-01-27T13:37:51.660Z,96916.56
2023-01-27T13:40:06.098Z,96925.19
2023-01-27T13:42:18.984Z,96928.84
2023-01-27T13:44:30.475Z,96930.19
2023-01-27T13:46:40.852Z,96925.75
2023-01-27T13:48:49.673Z,96931.53
2023-01-27T13:51:01.233Z,96937.03
2023-01-27T13:53:07.409Z,96934.88
2023-01-27T13:55:17.780Z,96929.63
2023-01-27T13:57:54.563Z,96929.63
2023-01-27T14:00:10.140Z,96933.84
2023-01-27T14:02:41.113Z,96944.09
2023-01-27T14:05:05.973Z,96935.19
2023-01-27T14:07:22.755Z,96944.63
2023-01-27T14:09:41.293Z,96944.41
2023-01-27T14:11:53.945Z,96939.41
2023-01-27T14:14:29.483Z,96940.13
2023-01-27T14:16:46.606Z,96942.50
2023-01-27T14:18:55.724Z,96936.00
2023-01-27T14:21:16.464Z,96948.28
2023-01-27T14:23:36.147Z,96952.50
2023-01-27T14:25:47.460Z,96946.72
2023-01-27T14:28:05.220Z,96935.91
2023-01-27T14:30:22.037Z,96947.19
2023-01-27T14:32:33.464Z,96945.59
2023-01-27T14:34:53.733Z,96942.41
2023-01-27T14:37:06.045Z,96946.06
2023-01-27T14:39:22.372Z,96959.06
2023-01-27T14:41:34.997Z,96956.69
2023-01-27T14:43:50.275Z,96957.63
2023-01-27T14:46:00.666Z,96961.38
2023-01-27T14:48:18.269Z,96971.84
2023-01-27T14:50:32.595Z,96968.41
2023-01-27T14:52:46.490Z,96963.19
2023-01-27T14:55:06.558Z,96966.84
2023-01-27T14:57:26.799Z,96966.84
2023-01-27T14:59:43.432Z,96967.38
2023-01-27T15:01:58.761Z,96965.00
2023-01-27T15:04:42.896Z,96971.59
2023-01-27T15:06:50.237Z,96978.44
2023-01-27T15:09:03.753Z,96976.59
2023-01-27T15:11:25.973Z,96974.22
2023-01-27T15:13:49.443Z,96975.81
2023-01-27T15:16:29.041Z,96975.00
2023-01-27T15:19:08.824Z,96982.88
2023-01-27T15:21:34.562Z,96977.88
2023-01-27T15:24:01.398Z,96986.50
2023-01-27T15:26:09.800Z,96984.69
2023-01-27T15:28:17.470Z,96983.44
2023-01-27T15:30:28.736Z,96992.06
2023-01-27T15:32:38.895Z,96990.00
2023-01-27T15:34:47.763Z,96995.47
2023-01-27T15:37:05.774Z,96994.94
2023-01-27T15:39:35.523Z,96989.69
2023-01-27T15:41:55.244Z,96991.53
2023-01-27T15:44:07.993Z,96996.19
2023-01-27T15:46:30.256Z,96998.56
2023-01-27T15:48:41.063Z,96998.34
2023-01-27T15:50:52.140Z,96995.16
2023-01-27T15:53:04.971Z,97002.00
2023-01-27T15:55:25.413Z,97004.81
2023-01-27T15:57:32.549Z,96996.75
2023-01-27T15:59:58.872Z,96999.59
2023-01-27T16:02:08.183Z,96998.34
2023-01-27T16:04:19.892Z,97004.38
2023-01-27T16:06:28.765Z,96995.94
2023-01-27T16:08:40.545Z,96993.91
2023-01-27T16:10:45.721Z,96999.16
2023-01-27T16:12:52.612Z,97006.41
2023-01-27T16:15:27.430Z,97002.00
2023-01-27T16:17:35.471Z,97010.06
2023-01-27T16:19:44.558Z,97011.13
2023-01-27T16:21:57.774Z,97011.91
2023-01-27T16:24:08.486Z,97008.50
2023-01-27T16:26:30.642Z,97012.91
2023-01-27T16:28:37.405Z,97010.88
2023-01-27T16:30:49.831Z,97010.63
2023-01-27T16:33:06.584Z,97020.53
2023-01-27T16:35:22.072Z,97020.78
2023-01-27T16:37:31.585Z,97023.97
2023-01-27T16:39:46.292Z,97019.50
2023-01-27T16:41:56.423Z,97021.91
2023-01-27T16:44:05.207Z,97021.66
2023-01-27T16:46:28.319Z,97019.28
2023-01-27T16:48:39.284Z,97027.94
2023-01-27T16:50:45.812Z,97024.28
2023-01-27T16:52:53.555Z,97024.28
2023-01-27T16:54:58.908Z,97027.72
2023-01-27T16:57:06.219Z,97028.97
2023-01-27T16:59:21.224Z,97028.97
2023-01-27T17:01:31.237Z,97031.47
2023-01-27T17:03:40.120Z,97022.59
2023-01-27T17:05:46.023Z,97023.63
2023-01-27T17:08:26.458Z,97030.38
2023-01-27T17:10:35.520Z,97035.81
2023-01-27T17:12:47.007Z,97029.03
2023-01-27T17:14:51.893Z,97037.09
2023-01-27T17:17:02.433Z,97037.66
2023-01-27T17:19:12.847Z,97038.69
2023-01-27T17:21:27.980Z,97028.44
2023-01-27T17:23:37.617Z,97052.34
2023-01-27T17:25:42.941Z,97036.88
2023-01-27T17:27:48.496Z,97046.28
2023-01-27T17:29:57.626Z,97055.75
2023-01-27T17:32:02.809Z,97047.88
2023-01-27T17:34:07.791Z,97049.97
2023-01-27T17:36:14.985Z,97051.53
2023-01-27T17:38:23.651Z,97048.38
2023-01-27T17:40:31.136Z,97051.22
2023-01-27T17:42:36.918Z,97052.56
2023-01-27T17:44:41.951Z,97055.19
2023-01-27T17:46:46.841Z,97051.75
2023-01-27T17:48:56.114Z,97056.22
2023-01-27T17:51:01.454Z,97060.91
2023-01-27T17:53:11.460Z,97061.91
2023-01-27T17:55:19.334Z,97071.59
2023-01-27T17:57:32.765Z,97064.53
2023-01-27T17:59:38.920Z,97059.09
2023-01-27T18:01:44.117Z,97062.84
2023-01-27T18:03:53.062Z,97072.50
2023-01-27T18:05:59.316Z,97078.31
2023-01-27T18:08:05.304Z,97073.66
2023-01-27T18:10:26.682Z,97078.31
2023-01-27T18:12:40.184Z,97073.88
2023-01-27T18:14:45.071Z,97080.13
2023-01-27T18:17:00.930Z,97079.13
2023-01-27T18:19:11.187Z,97079.13
2023-01-27T18:21:21.520Z,97091.72
2023-01-27T18:23:30.409Z,97090.72
2023-01-27T18:25:35.349Z,97086.72
2023-01-27T18:27:43.322Z,97108.00
2023-01-27T18:29:48.192Z,97104.59
2023-01-27T18:31:56.056Z,97100.28
2023-01-27T18:34:03.644Z,97093.78
2023-01-27T18:36:21.549Z,97092.19
2023-01-27T18:38:28.570Z,97098.22
2023-01-27T18:40:35.526Z,97095.59
2023-01-27T18:42:43.079Z,97092.66
2023-01-27T18:44:48.566Z,97093.22
2023-01-27T18:46:53.570Z,97098.81
2023-01-27T18:48:59.798Z,97098.81
2023-01-27T18:51:04.647Z,97097.19
2023-01-27T18:53:16.456Z,97098.81
2023-01-27T18:55:23.652Z,97104.03
2023-01-27T18:57:28.679Z,97095.59
2023-01-27T18:59:36.195Z,97097.44
2023-01-27T19:01:41.303Z,97091.19
2023-01-27T19:03:46.172Z,97095.16
2023-01-27T19:05:52.016Z,97102.19
2023-01-27T19:07:56.843Z,97099.59
2023-01-27T19:10:01.759Z,97090.16
2023-01-27T19:12:07.179Z,97096.19
2023-01-27T19:14:12.656Z,97095.16
2023-01-27T19:16:21.140Z,97087.97
2023-01-27T19:18:29.367Z,97088.88
2023-01-27T19:20:34.286Z,97092.53
2023-01-27T19:22:39.259Z,97095.94
2023-01-27T19:24:45.483Z,97085.38
2023-01-27T19:26:50.381Z,97087.44
2023-01-27T19:28:57.384Z,97087.44
2023-01-27T19:31:03.027Z,97087.44
2023-01-27T19:33:21.936Z,97090.03
2023-01-27T19:35:28.686Z,97092.44
2023-01-27T19:37:34.412Z,97090.84
2023-01-27T19:39:39.301Z,97096.88
2023-01-27T19:41:45.735Z,97097.91
2023-01-27T19:43:50.577Z,97108.13
2023-01-27T19:45:55.751Z,97109.16
2023-01-27T19:48:01.379Z,97103.13
2023-01-27T19:50:09.474Z,97104.97
2023-01-27T19:52:14.495Z,97105.50
2023-01-27T19:54:19.936Z,97109.50
2023-01-27T19:56:26.645Z,97115.53
2023-01-27T19:58:31.621Z,97112.34
2023-01-27T20:00:38.529Z,97122.81
2023-01-27T20:02:43.740Z,97113.59
2023-01-27T20:04:48.578Z,97113.06
2023-01-27T20:06:56.076Z,97109.84
2023-01-27T20:09:03.641Z,97117.47
2023-01-27T20:11:08.690Z,97122.47
2023-01-27T20:13:16.987Z,97127.16
2023-01-27T20:15:22.863Z,97128.75
2023-01-27T20:17:27.721Z,97122.63
2023-01-27T20:19:32.623Z,97121.00
2023-01-27T20:21:37.498Z,97131.25
2023-01-27T20:23:45.254Z,97136.47
2023-01-27T20:25:50.207Z,97133.09
2023-01-27T20:27:56.970Z,97136.72
2023-01-27T20:30:01.858Z,97137.72
2023-01-27T20:32:09.689Z,97132.25
2023-01-27T20:34:14.560Z,97140.03
2023-01-27T20:36:20.952Z,97142.97
2023-01-27T20:38:25.915Z,97138.53
2023-01-27T20:40:33.627Z,97140.81
2023-01-27T20:42:38.932Z,97142.97
2023-01-27T20:44:44.263Z,97148.56
2023-01-27T20:46:49.634Z,97133.31
2023-01-27T20:48:54.680Z,97150.13
2023-01-27T20:51:03.262Z,97146.16
2023-01-27T20:53:08.413Z,97144.09
2023-01-27T20:55:13.763Z,97138.53
2023-01-27T20:57:22.545Z,97139.34
2023-01-27T20:59:27.589Z,97140.94
2023-01-27T21:01:33.219Z,97154.81
2023-01-27T21:03:39.744Z,97150.59
2023-01-27T21:05:45.980Z,97147.66
2023-01-27T21:07:51.066Z,97154.47
2023-01-27T21:09:56.227Z,97156.28
2023-01-27T21:12:01.365Z,97145.50
2023-01-27T21:14:09.403Z,97143.66
2023-01-27T21:16:15.780Z,97159.72
2023-01-27T21:18:21.079Z,97137.88
2023-01-27T21:20:26.151Z,97152.88
2023-01-27T21:22:31.072Z,97157.75
2023-01-27T21:24:36.963Z,97152.28
2023-01-27T21:26:42.262Z,97159.72
2023-01-27T21:28:50.387Z,97165.72
2023-01-27T21:30:58.196Z,97163.56
2023-01-27T21:33:03.502Z,97162.34
2023-01-27T21:35:09.540Z,97164.13
2023-01-27T21:37:14.503Z,97168.56
2023-01-27T21:39:19.387Z,97157.44
2023-01-27T21:41:40.045Z,97161.41
2023-01-27T21:43:57.510Z,97166.31
2023-01-27T21:46:05.160Z,97163.34
2023-01-27T21:48:10.100Z,97162.78
2023-01-27T21:50:15.312Z,97167.00
2023-01-27T21:52:20.229Z,97149.69
2023-01-27T21:54:25.216Z,97152.31
2023-01-27T21:56:36.728Z,97162.78
2023-01-27T21:58:41.832Z,97158.81
2023-01-27T22:00:46.861Z,97148.81
2023-01-27T22:02:59.496Z,97167.00
2023-01-27T22:05:04.436Z,97159.84
2023-01-27T22:07:10.182Z,97172.00
2023-01-27T22:09:15.250Z,97170.63
2023-01-27T22:11:20.397Z,97168.00
2023-01-27T22:13:25.264Z,97158.81
2023-01-27T22:15:31.386Z,97157.78
2023-01-27T22:17:37.297Z,97158.81
2023-01-27T22:19:45.856Z,97149.91
2023-01-27T22:21:50.824Z,97152.78
2023-01-27T22:23:55.907Z,97158.81
2023-01-27T22:26:00.871Z,97148.13
2023-01-27T22:28:05.779Z,97150.50
2023-01-27T22:30:12.880Z,97149.47
2023-01-27T22:32:17.904Z,97145.81
2023-01-27T22:34:22.994Z,97144.47
2023-01-27T22:36:30.557Z,97157.31
2023-01-27T22:38:40.286Z,97153.91
2023-01-27T22:40:45.249Z,97145.28
2023-01-27T22:42:51.572Z,97154.13
2023-01-27T22:44:56.502Z,97150.16
2023-01-27T22:47:01.452Z,97149.13
2023-01-27T22:49:06.675Z,97147.06
2023-01-27T22:51:11.717Z,97145.50
2023-01-27T22:53:19.328Z,97137.66
2023-01-27T22:55:24.254Z,97137.66
2023-01-27T22:57:31.501Z,97137.06
2023-01-27T22:59:36.455Z,97140.97
2023-01-27T23:01:41.457Z,97137.06
2023-01-27T23:03:46.389Z,97130.03
2023-01-27T23:05:51.595Z,97141.06
2023-01-27T23:07:56.510Z,97133.22
2023-01-27T23:10:04.145Z,97138.66
2023-01-27T23:12:09.677Z,97142.88
2023-01-27T23:14:14.884Z,97149.69
2023-01-27T23:16:19.866Z,97147.53
2023-01-27T23:18:24.912Z,97144.13
2023-01-27T23:20:29.932Z,97132.53
2023-01-27T23:22:35.328Z,97136.97
2023-01-27T23:24:40.688Z,97130.38
2023-01-27T23:26:48.235Z,97131.16
2023-01-27T23:28:53.436Z,97138.22
2023-01-27T23:30:58.563Z,97141.41
2023-01-27T23:33:03.478Z,97146.63
2023-01-27T23:35:09.752Z,97138.00
2023-01-27T23:37:14.698Z,97145.28
2023-01-27T23:39:19.923Z,97148.91
2023-01-27T23:41:24.787Z,97144.94
2023-01-27T23:43:32.874Z,97148.78
2023-01-27T23:45:37.758Z,97147.78
2023-01-27T23:47:42.778Z,97152.78
2023-01-27T23:49:47.960Z,97154.84
2023-01-27T23:51:53.073Z,97157.44
2023-01-27T23:53:58.000Z,97158.81
2023-01-27T23:56:03.872Z,97159.38
2023-01-27T23:58:08.997Z,97157.53
